sensor_id;sensor_type;location;lat;lon;timestamp;P1;durP1;ratioP1;P2;durP2;ratioP2
63394;SDS011;49531;-34.520;150.798;2024-02-14T00:00:24;8.77;;;1.25;;
63394;SDS011;49531;-34.520;150.798;2024-02-14T00:02:54;13.00;;;1.60;;
63394;SDS011;49531;-34.520;150.798;2024-02-14T00:05:21;8.98;;;1.30;;
63394;SDS011;49531;-34.520;150.798;2024-02-14T00:07:52;8.15;;;1.10;;
63394;SDS011;49531;-34.520;150.798;2024-02-14T00:10:19;5.20;;;1.30;;
63394;SDS011;49531;-34.520;150.798;2024-02-14T00:12:46;5.78;;;1.05;;
63394;SDS011;49531;-34.520;150.798;2024-02-14T00:15:13;5.55;;;1.25;;
63394;SDS011;49531;-34.520;150.798;2024-02-14T00:17:41;7.45;;;1.13;;
63394;SDS011;49531;-34.520;150.798;2024-02-14T00:20:09;5.32;;;1.10;;
63394;SDS011;49531;-34.520;150.798;2024-02-14T00:22:38;4.50;;;1.10;;
63394;SDS011;49531;-34.520;150.798;2024-02-14T00:25:06;5.53;;;1.30;;
63394;SDS011;49531;-34.520;150.798;2024-02-14T00:27:34;4.15;;;1.00;;
63394;SDS011;49531;-34.520;150.798;2024-02-14T00:30:02;4.20;;;1.00;;
63394;SDS011;49531;-34.520;150.798;2024-02-14T00:32:29;4.20;;;1.02;;
63394;SDS011;49531;-34.520;150.798;2024-02-14T00:34:56;4.55;;;1.00;;
63394;SDS011;49531;-34.520;150.798;2024-02-14T00:37:23;5.70;;;1.40;;
63394;SDS011;49531;-34.520;150.798;2024-02-14T00:39:51;8.63;;;1.73;;
63394;SDS011;49531;-34.520;150.798;2024-02-14T00:42:19;9.48;;;1.83;;
63394;SDS011;49531;-34.520;150.798;2024-02-14T00:44:46;10.70;;;2.00;;
63394;SDS011;49531;-34.520;150.798;2024-02-14T00:47:13;10.43;;;1.75;;
63394;SDS011;49531;-34.520;150.798;2024-02-14T00:49:40;10.57;;;2.22;;
63394;SDS011;49531;-34.520;150.798;2024-02-14T00:52:08;11.10;;;2.05;;
63394;SDS011;49531;-34.520;150.798;2024-02-14T00:54:35;10.32;;;2.28;;
63394;SDS011;49531;-34.520;150.798;2024-02-14T00:57:02;19.33;;;3.75;;
63394;SDS011;49531;-34.520;150.798;2024-02-14T00:59:30;21.55;;;4.00;;
63394;SDS011;49531;-34.520;150.798;2024-02-14T01:02:03;26.67;;;4.03;;
63394;SDS011;49531;-34.520;150.798;2024-02-14T01:04:30;22.90;;;4.15;;
63394;SDS011;49531;-34.520;150.798;2024-02-14T01:06:57;26.02;;;4.35;;
63394;SDS011;49531;-34.520;150.798;2024-02-14T01:09:24;25.05;;;3.70;;
63394;SDS011;49531;-34.520;150.798;2024-02-14T01:11:52;21.73;;;3.88;;
63394;SDS011;49531;-34.520;150.798;2024-02-14T01:14:19;23.05;;;3.97;;
63394;SDS011;49531;-34.520;150.798;2024-02-14T01:16:47;19.20;;;3.40;;
63394;SDS011;49531;-34.520;150.798;2024-02-14T01:19:14;16.85;;;3.42;;
63394;SDS011;49531;-34.520;150.798;2024-02-14T01:21:44;22.17;;;3.55;;
63394;SDS011;49531;-34.520;150.798;2024-02-14T01:24:14;20.45;;;3.58;;
63394;SDS011;49531;-34.520;150.798;2024-02-14T01:26:42;25.30;;;4.03;;
63394;SDS011;49531;-34.520;150.798;2024-02-14T01:29:09;22.45;;;4.32;;
63394;SDS011;49531;-34.520;150.798;2024-02-14T01:31:36;16.58;;;3.35;;
63394;SDS011;49531;-34.520;150.798;2024-02-14T01:34:03;21.05;;;3.17;;
63394;SDS011;49531;-34.520;150.798;2024-02-14T01:36:33;18.05;;;3.30;;
63394;SDS011;49531;-34.520;150.798;2024-02-14T01:39:00;17.92;;;3.10;;
63394;SDS011;49531;-34.520;150.798;2024-02-14T01:41:27;21.92;;;4.07;;
63394;SDS011;49531;-34.520;150.798;2024-02-14T01:43:54;23.80;;;3.92;;
63394;SDS011;49531;-34.520;150.798;2024-02-14T01:46:21;17.50;;;3.20;;
63394;SDS011;49531;-34.520;150.798;2024-02-14T01:48:49;24.05;;;4.22;;
63394;SDS011;49531;-34.520;150.798;2024-02-14T01:51:16;20.85;;;3.63;;
63394;SDS011;49531;-34.520;150.798;2024-02-14T01:53:46;19.70;;;3.45;;
63394;SDS011;49531;-34.520;150.798;2024-02-14T01:56:13;19.15;;;3.70;;
63394;SDS011;49531;-34.520;150.798;2024-02-14T01:58:41;18.90;;;3.90;;
63394;SDS011;49531;-34.520;150.798;2024-02-14T02:01:09;21.70;;;3.90;;
63394;SDS011;49531;-34.520;150.798;2024-02-14T02:03:37;14.45;;;3.28;;
63394;SDS011;49531;-34.520;150.798;2024-02-14T02:06:05;21.63;;;3.55;;
63394;SDS011;49531;-34.520;150.798;2024-02-14T02:08:32;17.13;;;3.50;;
63394;SDS011;49531;-34.520;150.798;2024-02-14T02:11:00;22.77;;;3.70;;
63394;SDS011;49531;-34.520;150.798;2024-02-14T02:13:27;18.05;;;3.65;;
63394;SDS011;49531;-34.520;150.798;2024-02-14T02:15:54;17.33;;;3.50;;
63394;SDS011;49531;-34.520;150.798;2024-02-14T02:18:22;15.70;;;3.10;;
63394;SDS011;49531;-34.520;150.798;2024-02-14T02:20:51;15.23;;;2.90;;
63394;SDS011;49531;-34.520;150.798;2024-02-14T02:23:18;17.20;;;3.47;;
63394;SDS011;49531;-34.520;150.798;2024-02-14T02:25:45;17.55;;;3.28;;
63394;SDS011;49531;-34.520;150.798;2024-02-14T02:28:13;17.50;;;3.30;;
63394;SDS011;49531;-34.520;150.798;2024-02-14T02:30:40;19.63;;;3.28;;
63394;SDS011;49531;-34.520;150.798;2024-02-14T02:33:07;15.55;;;3.40;;
63394;SDS011;49531;-34.520;150.798;2024-02-14T02:35:34;19.38;;;3.63;;
63394;SDS011;49531;-34.520;150.798;2024-02-14T02:38:01;16.52;;;3.45;;
63394;SDS011;49531;-34.520;150.798;2024-02-14T02:40:29;16.88;;;3.25;;
63394;SDS011;49531;-34.520;150.798;2024-02-14T02:42:56;19.02;;;3.75;;
63394;SDS011;49531;-34.520;150.798;2024-02-14T02:45:24;14.65;;;2.90;;
63394;SDS011;49531;-34.520;150.798;2024-02-14T02:47:52;19.63;;;3.47;;
63394;SDS011;49531;-34.520;150.798;2024-02-14T02:50:19;13.10;;;2.90;;
63394;SDS011;49531;-34.520;150.798;2024-02-14T02:52:47;18.13;;;3.05;;
63394;SDS011;49531;-34.520;150.798;2024-02-14T02:55:14;17.73;;;3.20;;
63394;SDS011;49531;-34.520;150.798;2024-02-14T02:57:47;14.75;;;3.10;;
63394;SDS011;49531;-34.520;150.798;2024-02-14T03:00:15;20.30;;;3.78;;
63394;SDS011;49531;-34.520;150.798;2024-02-14T03:02:42;13.52;;;3.00;;
63394;SDS011;49531;-34.520;150.798;2024-02-14T03:05:12;15.88;;;3.40;;
63394;SDS011;49531;-34.520;150.798;2024-02-14T03:07:48;14.48;;;2.70;;
63394;SDS011;49531;-34.520;150.798;2024-02-14T03:10:16;14.98;;;3.10;;
63394;SDS011;49531;-34.520;150.798;2024-02-14T03:12:49;11.65;;;2.72;;
63394;SDS011;49531;-34.520;150.798;2024-02-14T03:17:44;14.35;;;2.97;;
63394;SDS011;49531;-34.520;150.798;2024-02-14T03:20:12;18.65;;;2.90;;
63394;SDS011;49531;-34.520;150.798;2024-02-14T03:22:45;15.35;;;2.95;;
63394;SDS011;49531;-34.520;150.798;2024-02-14T03:25:21;16.52;;;3.13;;
63394;SDS011;49531;-34.520;150.798;2024-02-14T03:27:49;13.85;;;2.75;;
63394;SDS011;49531;-34.520;150.798;2024-02-14T03:30:18;14.65;;;2.70;;
63394;SDS011;49531;-34.520;150.798;2024-02-14T03:32:48;14.15;;;3.00;;
63394;SDS011;49531;-34.520;150.798;2024-02-14T03:35:15;17.17;;;3.08;;
63394;SDS011;49531;-34.520;150.798;2024-02-14T03:37:45;10.95;;;2.63;;
63394;SDS011;49531;-34.520;150.798;2024-02-14T03:40:18;11.57;;;2.65;;
63394;SDS011;49531;-34.520;150.798;2024-02-14T03:42:48;11.60;;;2.63;;
63394;SDS011;49531;-34.520;150.798;2024-02-14T03:45:15;12.48;;;2.63;;
63394;SDS011;49531;-34.520;150.798;2024-02-14T03:47:42;13.93;;;2.67;;
63394;SDS011;49531;-34.520;150.798;2024-02-14T03:50:09;13.50;;;2.60;;
63394;SDS011;49531;-34.520;150.798;2024-02-14T03:52:36;13.07;;;2.72;;
63394;SDS011;49531;-34.520;150.798;2024-02-14T03:55:04;13.27;;;2.65;;
63394;SDS011;49531;-34.520;150.798;2024-02-14T03:57:34;9.65;;;2.40;;
63394;SDS011;49531;-34.520;150.798;2024-02-14T04:00:04;15.18;;;2.67;;
63394;SDS011;49531;-34.520;150.798;2024-02-14T04:02:35;8.55;;;1.83;;
63394;SDS011;49531;-34.520;150.798;2024-02-14T04:05:08;10.80;;;2.22;;
63394;SDS011;49531;-34.520;150.798;2024-02-14T04:07:35;12.02;;;2.30;;
63394;SDS011;49531;-34.520;150.798;2024-02-14T04:10:03;10.18;;;2.33;;
63394;SDS011;49531;-34.520;150.798;2024-02-14T04:12:31;11.75;;;2.30;;
63394;SDS011;49531;-34.520;150.798;2024-02-14T04:14:58;12.15;;;2.22;;
63394;SDS011;49531;-34.520;150.798;2024-02-14T04:17:25;9.93;;;2.28;;
63394;SDS011;49531;-34.520;150.798;2024-02-14T04:19:52;9.75;;;2.28;;
63394;SDS011;49531;-34.520;150.798;2024-02-14T04:22:19;11.02;;;2.40;;
63394;SDS011;49531;-34.520;150.798;2024-02-14T04:24:47;10.80;;;2.05;;
63394;SDS011;49531;-34.520;150.798;2024-02-14T04:27:14;11.30;;;2.33;;
63394;SDS011;49531;-34.520;150.798;2024-02-14T04:29:44;8.32;;;2.05;;
63394;SDS011;49531;-34.520;150.798;2024-02-14T04:32:13;9.75;;;2.10;;
63394;SDS011;49531;-34.520;150.798;2024-02-14T04:34:40;12.15;;;2.30;;
63394;SDS011;49531;-34.520;150.798;2024-02-14T04:37:08;12.68;;;2.40;;
63394;SDS011;49531;-34.520;150.798;2024-02-14T04:39:39;11.40;;;2.00;;
63394;SDS011;49531;-34.520;150.798;2024-02-14T04:42:07;11.48;;;2.35;;
63394;SDS011;49531;-34.520;150.798;2024-02-14T04:44:34;9.35;;;2.28;;
63394;SDS011;49531;-34.520;150.798;2024-02-14T04:47:02;10.15;;;2.17;;
63394;SDS011;49531;-34.520;150.798;2024-02-14T04:49:29;7.63;;;1.92;;
63394;SDS011;49531;-34.520;150.798;2024-02-14T04:51:57;9.98;;;2.17;;
63394;SDS011;49531;-34.520;150.798;2024-02-14T04:54:24;8.00;;;2.10;;
63394;SDS011;49531;-34.520;150.798;2024-02-14T04:56:54;12.80;;;2.40;;
63394;SDS011;49531;-34.520;150.798;2024-02-14T04:59:21;8.32;;;1.80;;
63394;SDS011;49531;-34.520;150.798;2024-02-14T05:01:48;9.80;;;1.83;;
63394;SDS011;49531;-34.520;150.798;2024-02-14T05:04:17;7.32;;;1.90;;
63394;SDS011;49531;-34.520;150.798;2024-02-14T05:06:44;6.95;;;1.50;;
63394;SDS011;49531;-34.520;150.798;2024-02-14T05:09:12;9.07;;;1.92;;
63394;SDS011;49531;-34.520;150.798;2024-02-14T05:11:40;7.30;;;1.70;;
63394;SDS011;49531;-34.520;150.798;2024-02-14T05:14:17;11.25;;;2.13;;
63394;SDS011;49531;-34.520;150.798;2024-02-14T05:16:44;7.70;;;1.75;;
63394;SDS011;49531;-34.520;150.798;2024-02-14T05:19:11;9.40;;;1.88;;
63394;SDS011;49531;-34.520;150.798;2024-02-14T05:21:38;6.97;;;1.50;;
63394;SDS011;49531;-34.520;150.798;2024-02-14T05:24:06;9.65;;;1.65;;
63394;SDS011;49531;-34.520;150.798;2024-02-14T05:26:33;10.68;;;1.77;;
63394;SDS011;49531;-34.520;150.798;2024-02-14T05:29:01;9.20;;;1.80;;
63394;SDS011;49531;-34.520;150.798;2024-02-14T05:31:42;7.40;;;1.33;;
63394;SDS011;49531;-34.520;150.798;2024-02-14T05:34:14;4.72;;;1.10;;
63394;SDS011;49531;-34.520;150.798;2024-02-14T05:36:41;5.72;;;1.30;;
63394;SDS011;49531;-34.520;150.798;2024-02-14T05:39:11;6.60;;;1.40;;
63394;SDS011;49531;-34.520;150.798;2024-02-14T05:41:39;8.90;;;1.63;;
63394;SDS011;49531;-34.520;150.798;2024-02-14T05:44:07;6.63;;;1.58;;
63394;SDS011;49531;-34.520;150.798;2024-02-14T05:46:34;4.68;;;1.20;;
63394;SDS011;49531;-34.520;150.798;2024-02-14T05:49:01;7.82;;;1.48;;
63394;SDS011;49531;-34.520;150.798;2024-02-14T05:51:29;6.68;;;1.30;;
63394;SDS011;49531;-34.520;150.798;2024-02-14T05:53:56;4.93;;;1.10;;
63394;SDS011;49531;-34.520;150.798;2024-02-14T05:56:23;2.38;;;0.80;;
63394;SDS011;49531;-34.520;150.798;2024-02-14T05:58:50;5.50;;;1.15;;
63394;SDS011;49531;-34.520;150.798;2024-02-14T06:01:18;6.25;;;1.30;;
63394;SDS011;49531;-34.520;150.798;2024-02-14T06:03:45;5.38;;;1.05;;
63394;SDS011;49531;-34.520;150.798;2024-02-14T06:06:12;7.75;;;1.48;;
63394;SDS011;49531;-34.520;150.798;2024-02-14T06:08:39;5.22;;;1.17;;
63394;SDS011;49531;-34.520;150.798;2024-02-14T06:11:06;9.73;;;1.73;;
63394;SDS011;49531;-34.520;150.798;2024-02-14T06:13:33;4.47;;;1.08;;
63394;SDS011;49531;-34.520;150.798;2024-02-14T06:16:03;6.05;;;1.23;;
63394;SDS011;49531;-34.520;150.798;2024-02-14T06:18:31;8.60;;;1.48;;
63394;SDS011;49531;-34.520;150.798;2024-02-14T06:20:58;4.82;;;1.10;;
63394;SDS011;49531;-34.520;150.798;2024-02-14T06:23:26;5.93;;;1.17;;
63394;SDS011;49531;-34.520;150.798;2024-02-14T06:25:53;4.22;;;0.90;;
63394;SDS011;49531;-34.520;150.798;2024-02-14T06:28:20;5.72;;;1.13;;
63394;SDS011;49531;-34.520;150.798;2024-02-14T06:30:47;7.97;;;1.20;;
63394;SDS011;49531;-34.520;150.798;2024-02-14T06:33:18;5.68;;;1.08;;
63394;SDS011;49531;-34.520;150.798;2024-02-14T06:35:45;7.28;;;1.38;;
63394;SDS011;49531;-34.520;150.798;2024-02-14T06:47:58;6.90;;;1.20;;
63394;SDS011;49531;-34.520;150.798;2024-02-14T06:50:25;2.78;;;0.80;;
63394;SDS011;49531;-34.520;150.798;2024-02-14T06:52:54;4.78;;;1.10;;
63394;SDS011;49531;-34.520;150.798;2024-02-14T06:55:25;6.32;;;1.13;;
63394;SDS011;49531;-34.520;150.798;2024-02-14T06:57:53;9.45;;;1.10;;
63394;SDS011;49531;-34.520;150.798;2024-02-14T07:00:20;2.65;;;0.80;;
63394;SDS011;49531;-34.520;150.798;2024-02-14T07:02:47;5.05;;;0.90;;
63394;SDS011;49531;-34.520;150.798;2024-02-14T07:05:14;11.55;;;1.73;;
63394;SDS011;49531;-34.520;150.798;2024-02-14T07:07:41;4.00;;;1.08;;
63394;SDS011;49531;-34.520;150.798;2024-02-14T07:10:09;6.38;;;1.25;;
63394;SDS011;49531;-34.520;150.798;2024-02-14T07:12:36;2.60;;;0.75;;
63394;SDS011;49531;-34.520;150.798;2024-02-14T07:15:04;5.20;;;1.25;;
63394;SDS011;49531;-34.520;150.798;2024-02-14T07:17:33;5.00;;;0.90;;
63394;SDS011;49531;-34.520;150.798;2024-02-14T07:20:04;5.55;;;1.02;;
63394;SDS011;49531;-34.520;150.798;2024-02-14T07:22:35;5.93;;;1.13;;
63394;SDS011;49531;-34.520;150.798;2024-02-14T07:25:02;4.90;;;1.08;;
63394;SDS011;49531;-34.520;150.798;2024-02-14T07:27:30;4.63;;;1.02;;
63394;SDS011;49531;-34.520;150.798;2024-02-14T07:29:57;4.75;;;1.02;;
63394;SDS011;49531;-34.520;150.798;2024-02-14T07:32:24;5.45;;;1.10;;
63394;SDS011;49531;-34.520;150.798;2024-02-14T07:34:53;5.28;;;0.90;;
63394;SDS011;49531;-34.520;150.798;2024-02-14T07:37:20;2.97;;;0.90;;
63394;SDS011;49531;-34.520;150.798;2024-02-14T07:39:47;6.70;;;1.17;;
63394;SDS011;49531;-34.520;150.798;2024-02-14T07:42:14;5.85;;;1.20;;
63394;SDS011;49531;-34.520;150.798;2024-02-14T07:44:41;10.20;;;1.65;;
63394;SDS011;49531;-34.520;150.798;2024-02-14T07:47:09;9.05;;;1.27;;
63394;SDS011;49531;-34.520;150.798;2024-02-14T07:49:36;4.57;;;1.00;;
63394;SDS011;49531;-34.520;150.798;2024-02-14T07:52:03;9.35;;;1.55;;
63394;SDS011;49531;-34.520;150.798;2024-02-14T07:54:30;5.03;;;0.85;;
63394;SDS011;49531;-34.520;150.798;2024-02-14T07:56:58;6.25;;;1.25;;
63394;SDS011;49531;-34.520;150.798;2024-02-14T07:59:25;3.88;;;1.05;;
63394;SDS011;49531;-34.520;150.798;2024-02-14T08:01:53;5.07;;;1.20;;
63394;SDS011;49531;-34.520;150.798;2024-02-14T08:04:20;9.48;;;1.55;;
63394;SDS011;49531;-34.520;150.798;2024-02-14T08:06:47;4.35;;;1.00;;
63394;SDS011;49531;-34.520;150.798;2024-02-14T08:09:17;10.50;;;1.60;;
63394;SDS011;49531;-34.520;150.798;2024-02-14T08:11:44;5.18;;;1.23;;
63394;SDS011;49531;-34.520;150.798;2024-02-14T08:14:11;9.23;;;1.50;;
63394;SDS011;49531;-34.520;150.798;2024-02-14T08:16:38;4.75;;;1.10;;
63394;SDS011;49531;-34.520;150.798;2024-02-14T08:19:05;7.00;;;1.35;;
63394;SDS011;49531;-34.520;150.798;2024-02-14T08:21:32;5.70;;;1.30;;
63394;SDS011;49531;-34.520;150.798;2024-02-14T08:23:59;3.70;;;1.10;;
63394;SDS011;49531;-34.520;150.798;2024-02-14T08:26:27;8.10;;;1.35;;
63394;SDS011;49531;-34.520;150.798;2024-02-14T08:28:54;5.05;;;1.20;;
63394;SDS011;49531;-34.520;150.798;2024-02-14T08:31:21;3.53;;;1.00;;
63394;SDS011;49531;-34.520;150.798;2024-02-14T08:33:48;4.43;;;1.02;;
63394;SDS011;49531;-34.520;150.798;2024-02-14T08:36:15;5.68;;;1.20;;
63394;SDS011;49531;-34.520;150.798;2024-02-14T08:38:47;5.40;;;1.20;;
63394;SDS011;49531;-34.520;150.798;2024-02-14T08:41:14;5.53;;;1.17;;
63394;SDS011;49531;-34.520;150.798;2024-02-14T08:43:42;6.45;;;1.38;;
63394;SDS011;49531;-34.520;150.798;2024-02-14T08:46:09;5.60;;;1.20;;
63394;SDS011;49531;-34.520;150.798;2024-02-14T08:48:37;5.22;;;1.05;;
63394;SDS011;49531;-34.520;150.798;2024-02-14T08:51:11;7.38;;;1.42;;
63394;SDS011;49531;-34.520;150.798;2024-02-14T08:53:39;7.70;;;1.40;;
63394;SDS011;49531;-34.520;150.798;2024-02-14T08:56:10;8.00;;;1.45;;
63394;SDS011;49531;-34.520;150.798;2024-02-14T08:58:37;4.38;;;0.98;;
63394;SDS011;49531;-34.520;150.798;2024-02-14T09:01:04;8.23;;;1.42;;
63394;SDS011;49531;-34.520;150.798;2024-02-14T09:03:32;4.35;;;1.10;;
63394;SDS011;49531;-34.520;150.798;2024-02-14T09:06:00;8.15;;;1.45;;
63394;SDS011;49531;-34.520;150.798;2024-02-14T09:08:29;4.82;;;1.00;;
63394;SDS011;49531;-34.520;150.798;2024-02-14T09:10:56;4.93;;;1.00;;
63394;SDS011;49531;-34.520;150.798;2024-02-14T09:13:24;2.05;;;0.73;;
63394;SDS011;49531;-34.520;150.798;2024-02-14T09:15:53;7.05;;;1.27;;
63394;SDS011;49531;-34.520;150.798;2024-02-14T09:18:20;6.80;;;1.30;;
63394;SDS011;49531;-34.520;150.798;2024-02-14T09:20:47;6.18;;;1.20;;
63394;SDS011;49531;-34.520;150.798;2024-02-14T09:23:16;9.38;;;1.42;;
63394;SDS011;49531;-34.520;150.798;2024-02-14T09:25:48;7.82;;;1.45;;
63394;SDS011;49531;-34.520;150.798;2024-02-14T09:28:15;6.07;;;1.23;;
63394;SDS011;49531;-34.520;150.798;2024-02-14T09:30:43;5.50;;;1.20;;
63394;SDS011;49531;-34.520;150.798;2024-02-14T09:33:10;4.55;;;1.20;;
63394;SDS011;49531;-34.520;150.798;2024-02-14T09:35:37;7.68;;;1.25;;
63394;SDS011;49531;-34.520;150.798;2024-02-14T09:38:10;5.80;;;1.23;;
63394;SDS011;49531;-34.520;150.798;2024-02-14T09:40:40;3.47;;;1.00;;
63394;SDS011;49531;-34.520;150.798;2024-02-14T09:43:20;5.35;;;1.15;;
63394;SDS011;49531;-34.520;150.798;2024-02-14T09:45:52;4.10;;;1.10;;
63394;SDS011;49531;-34.520;150.798;2024-02-14T09:48:20;7.93;;;1.48;;
63394;SDS011;49531;-34.520;150.798;2024-02-14T09:50:48;6.82;;;1.40;;
63394;SDS011;49531;-34.520;150.798;2024-02-14T09:53:15;7.00;;;1.50;;
63394;SDS011;49531;-34.520;150.798;2024-02-14T09:55:45;8.80;;;1.45;;
63394;SDS011;49531;-34.520;150.798;2024-02-14T09:58:13;6.97;;;1.40;;
63394;SDS011;49531;-34.520;150.798;2024-02-14T10:00:42;6.28;;;1.35;;
63394;SDS011;49531;-34.520;150.798;2024-02-14T10:03:09;5.13;;;1.17;;
63394;SDS011;49531;-34.520;150.798;2024-02-14T10:05:37;4.35;;;1.00;;
63394;SDS011;49531;-34.520;150.798;2024-02-14T10:08:04;10.90;;;1.40;;
63394;SDS011;49531;-34.520;150.798;2024-02-14T10:10:32;6.63;;;1.30;;
63394;SDS011;49531;-34.520;150.798;2024-02-14T10:13:05;4.65;;;1.10;;
63394;SDS011;49531;-34.520;150.798;2024-02-14T10:15:33;5.57;;;1.10;;
63394;SDS011;49531;-34.520;150.798;2024-02-14T10:18:01;4.50;;;0.93;;
63394;SDS011;49531;-34.520;150.798;2024-02-14T10:20:28;6.40;;;1.50;;
63394;SDS011;49531;-34.520;150.798;2024-02-14T10:23:05;8.48;;;1.73;;
63394;SDS011;49531;-34.520;150.798;2024-02-14T10:25:37;6.75;;;1.40;;
63394;SDS011;49531;-34.520;150.798;2024-02-14T10:28:04;5.65;;;1.40;;
63394;SDS011;49531;-34.520;150.798;2024-02-14T10:30:34;7.40;;;1.52;;
63394;SDS011;49531;-34.520;150.798;2024-02-14T10:33:06;5.45;;;1.33;;
63394;SDS011;49531;-34.520;150.798;2024-02-14T10:35:34;7.70;;;1.85;;
63394;SDS011;49531;-34.520;150.798;2024-02-14T10:38:06;6.53;;;1.50;;
63394;SDS011;49531;-34.520;150.798;2024-02-14T10:40:38;7.30;;;1.50;;
63394;SDS011;49531;-34.520;150.798;2024-02-14T10:43:06;8.20;;;1.50;;
63394;SDS011;49531;-34.520;150.798;2024-02-14T10:45:36;7.25;;;1.50;;
63394;SDS011;49531;-34.520;150.798;2024-02-14T10:48:05;5.90;;;1.20;;
63394;SDS011;49531;-34.520;150.798;2024-02-14T10:50:37;5.72;;;1.45;;
63394;SDS011;49531;-34.520;150.798;2024-02-14T10:53:10;8.80;;;1.70;;
63394;SDS011;49531;-34.520;150.798;2024-02-14T10:55:41;7.05;;;1.30;;
63394;SDS011;49531;-34.520;150.798;2024-02-14T10:58:16;9.38;;;1.55;;
63394;SDS011;49531;-34.520;150.798;2024-02-14T11:00:46;7.55;;;1.60;;
63394;SDS011;49531;-34.520;150.798;2024-02-14T11:03:14;9.05;;;1.83;;
63394;SDS011;49531;-34.520;150.798;2024-02-14T11:05:45;6.90;;;1.60;;
63394;SDS011;49531;-34.520;150.798;2024-02-14T11:08:14;10.15;;;1.75;;
63394;SDS011;49531;-34.520;150.798;2024-02-14T11:10:52;6.30;;;1.27;;
63394;SDS011;49531;-34.520;150.798;2024-02-14T11:13:30;9.30;;;1.60;;
63394;SDS011;49531;-34.520;150.798;2024-02-14T11:16:01;4.90;;;1.15;;
63394;SDS011;49531;-34.520;150.798;2024-02-14T11:18:30;9.60;;;1.85;;
63394;SDS011;49531;-34.520;150.798;2024-02-14T11:20:58;7.10;;;1.35;;
63394;SDS011;49531;-34.520;150.798;2024-02-14T11:23:29;8.40;;;1.70;;
63394;SDS011;49531;-34.520;150.798;2024-02-14T11:26:03;3.88;;;1.20;;
63394;SDS011;49531;-34.520;150.798;2024-02-14T11:28:36;4.78;;;1.20;;
63394;SDS011;49531;-34.520;150.798;2024-02-14T11:31:07;10.32;;;1.75;;
63394;SDS011;49531;-34.520;150.798;2024-02-14T11:33:35;5.70;;;1.45;;
63394;SDS011;49531;-34.520;150.798;2024-02-14T11:36:09;5.80;;;1.52;;
63394;SDS011;49531;-34.520;150.798;2024-02-14T11:38:37;4.30;;;1.20;;
63394;SDS011;49531;-34.520;150.798;2024-02-14T11:41:06;5.85;;;1.40;;
63394;SDS011;49531;-34.520;150.798;2024-02-14T11:43:36;5.68;;;1.35;;
63394;SDS011;49531;-34.520;150.798;2024-02-14T11:46:05;7.45;;;1.52;;
63394;SDS011;49531;-34.520;150.798;2024-02-14T11:48:32;9.02;;;1.70;;
63394;SDS011;49531;-34.520;150.798;2024-02-14T11:51:00;4.50;;;1.20;;
63394;SDS011;49531;-34.520;150.798;2024-02-14T11:53:27;7.60;;;1.35;;
63394;SDS011;49531;-34.520;150.798;2024-02-14T11:55:55;5.88;;;1.20;;
63394;SDS011;49531;-34.520;150.798;2024-02-14T11:58:22;7.95;;;1.50;;
63394;SDS011;49531;-34.520;150.798;2024-02-14T12:00:49;4.55;;;1.15;;
63394;SDS011;49531;-34.520;150.798;2024-02-14T12:03:17;5.60;;;1.27;;
63394;SDS011;49531;-34.520;150.798;2024-02-14T12:05:46;7.60;;;1.52;;
63394;SDS011;49531;-34.520;150.798;2024-02-14T12:08:16;6.10;;;1.45;;
63394;SDS011;49531;-34.520;150.798;2024-02-14T12:10:46;4.15;;;1.13;;
63394;SDS011;49531;-34.520;150.798;2024-02-14T12:13:15;7.40;;;1.48;;
63394;SDS011;49531;-34.520;150.798;2024-02-14T12:15:47;4.47;;;1.30;;
63394;SDS011;49531;-34.520;150.798;2024-02-14T12:18:16;6.10;;;1.48;;
63394;SDS011;49531;-34.520;150.798;2024-02-14T12:20:46;4.57;;;1.25;;
63394;SDS011;49531;-34.520;150.798;2024-02-14T12:23:16;3.78;;;1.13;;
63394;SDS011;49531;-34.520;150.798;2024-02-14T12:25:45;6.80;;;1.40;;
63394;SDS011;49531;-34.520;150.798;2024-02-14T12:28:16;4.97;;;1.10;;
63394;SDS011;49531;-34.520;150.798;2024-02-14T12:30:50;4.47;;;1.30;;
63394;SDS011;49531;-34.520;150.798;2024-02-14T12:33:27;7.22;;;1.38;;
63394;SDS011;49531;-34.520;150.798;2024-02-14T12:35:55;6.18;;;1.40;;
63394;SDS011;49531;-34.520;150.798;2024-02-14T12:38:24;8.68;;;1.67;;
63394;SDS011;49531;-34.520;150.798;2024-02-14T12:40:51;4.13;;;1.00;;
63394;SDS011;49531;-34.520;150.798;2024-02-14T12:43:21;4.97;;;1.35;;
63394;SDS011;49531;-34.520;150.798;2024-02-14T12:45:48;3.58;;;1.00;;
63394;SDS011;49531;-34.520;150.798;2024-02-14T12:48:22;6.18;;;1.38;;
63394;SDS011;49531;-34.520;150.798;2024-02-14T12:50:53;3.47;;;1.10;;
63394;SDS011;49531;-34.520;150.798;2024-02-14T12:53:21;5.47;;;1.33;;
63394;SDS011;49531;-34.520;150.798;2024-02-14T12:55:49;5.32;;;1.20;;
63394;SDS011;49531;-34.520;150.798;2024-02-14T12:58:16;3.75;;;1.08;;
63394;SDS011;49531;-34.520;150.798;2024-02-14T13:00:44;6.32;;;1.33;;
63394;SDS011;49531;-34.520;150.798;2024-02-14T13:03:11;5.78;;;1.38;;
63394;SDS011;49531;-34.520;150.798;2024-02-14T13:05:38;3.13;;;0.90;;
63394;SDS011;49531;-34.520;150.798;2024-02-14T13:08:06;5.32;;;1.30;;
63394;SDS011;49531;-34.520;150.798;2024-02-14T13:10:37;2.92;;;1.05;;
63394;SDS011;49531;-34.520;150.798;2024-02-14T13:13:07;3.65;;;0.90;;
63394;SDS011;49531;-34.520;150.798;2024-02-14T13:15:34;6.55;;;1.33;;
63394;SDS011;49531;-34.520;150.798;2024-02-14T13:18:02;5.00;;;1.17;;
63394;SDS011;49531;-34.520;150.798;2024-02-14T13:20:29;6.50;;;1.40;;
63394;SDS011;49531;-34.520;150.798;2024-02-14T13:22:56;4.90;;;1.33;;
63394;SDS011;49531;-34.520;150.798;2024-02-14T13:25:24;6.35;;;1.27;;
63394;SDS011;49531;-34.520;150.798;2024-02-14T13:27:51;3.03;;;1.10;;
63394;SDS011;49531;-34.520;150.798;2024-02-14T13:30:19;9.00;;;1.38;;
63394;SDS011;49531;-34.520;150.798;2024-02-14T13:32:48;4.85;;;1.15;;
63394;SDS011;49531;-34.520;150.798;2024-02-14T13:35:15;6.80;;;1.20;;
63394;SDS011;49531;-34.520;150.798;2024-02-14T13:37:42;4.57;;;1.13;;
63394;SDS011;49531;-34.520;150.798;2024-02-14T13:40:10;4.85;;;1.17;;
63394;SDS011;49531;-34.520;150.798;2024-02-14T13:42:38;7.00;;;1.25;;
63394;SDS011;49531;-34.520;150.798;2024-02-14T13:45:05;4.80;;;1.10;;
63394;SDS011;49531;-34.520;150.798;2024-02-14T13:47:37;6.47;;;1.52;;
63394;SDS011;49531;-34.520;150.798;2024-02-14T13:50:05;4.70;;;1.23;;
63394;SDS011;49531;-34.520;150.798;2024-02-14T13:52:33;8.25;;;1.52;;
63394;SDS011;49531;-34.520;150.798;2024-02-14T13:55:02;5.57;;;1.20;;
63394;SDS011;49531;-34.520;150.798;2024-02-14T13:57:37;4.57;;;1.10;;
63394;SDS011;49531;-34.520;150.798;2024-02-14T14:00:08;4.38;;;1.02;;
63394;SDS011;49531;-34.520;150.798;2024-02-14T14:02:35;8.50;;;1.48;;
63394;SDS011;49531;-34.520;150.798;2024-02-14T14:05:09;3.53;;;1.10;;
63394;SDS011;49531;-34.520;150.798;2024-02-14T14:07:38;7.70;;;1.40;;
63394;SDS011;49531;-34.520;150.798;2024-02-14T14:10:06;3.45;;;1.00;;
63394;SDS011;49531;-34.520;150.798;2024-02-14T14:12:36;8.27;;;1.40;;
63394;SDS011;49531;-34.520;150.798;2024-02-14T14:15:04;3.13;;;0.93;;
63394;SDS011;49531;-34.520;150.798;2024-02-14T14:17:31;3.55;;;1.08;;
63394;SDS011;49531;-34.520;150.798;2024-02-14T14:19:58;4.93;;;1.05;;
63394;SDS011;49531;-34.520;150.798;2024-02-14T14:22:26;8.32;;;1.10;;
63394;SDS011;49531;-34.520;150.798;2024-02-14T14:24:54;3.03;;;0.90;;